Time;durP1;ratioP1;P1;durP2;ratioP2;P2;SDS_P1;SDS_P2;PMS_P1;PMS_P2;Temp;Humidity;BMP_temperature;BMP_pressure;BME280_temperature;BME280_humidity;BME280_pressure;Samples;Min_cycle;Max_cycle;Signal;HPM_P1;HPM_P2
2021/04/19 00:00:31;;;;;;;50.58;27.80;;;;;;;5.08;100.00;101353.13;4975029;28;20668;-72
2021/04/19 00:02:58;;;;;;;50.13;28.05;;;;;;;5.13;100.00;101357.38;4974495;28;20085;-72
2021/04/19 00:05:25;;;;;;;43.22;26.63;;;;;;;5.04;100.00;101356.72;4997970;28;20086;-72
2021/04/19 00:07:52;;;;;;;53.17;29.10;;;;;;;5.03;100.00;101346.31;4992786;28;20137;-71
2021/04/19 00:10:20;;;;;;;51.35;29.05;;;;;;;5.11;100.00;101348.75;4960279;28;20051;-71
2021/04/19 00:12:47;;;;;;;48.53;27.40;;;;;;;5.13;100.00;101345.19;4978106;28;20050;-72
2021/04/19 00:15:16;;;;;;;57.38;28.23;;;;;;;5.13;100.00;101344.31;4996612;28;20056;-72
2021/04/19 00:17:43;;;;;;;53.13;29.48;;;;;;;5.02;100.00;101342.00;4995239;28;20077;-73
2021/04/19 00:20:10;;;;;;;47.55;29.55;;;;;;;5.12;100.00;101338.25;4972853;28;20042;-73
2021/04/19 00:22:37;;;;;;;50.55;28.88;;;;;;;5.17;100.00;101340.75;4991867;28;20050;-72
2021/04/19 00:25:05;;;;;;;59.03;30.55;;;;;;;5.07;100.00;101330.53;4992300;28;20054;-72
2021/04/19 00:27:31;;;;;;;51.17;30.73;;;;;;;5.05;100.00;101334.09;4991181;28;20046;-72
2021/04/19 00:29:58;;;;;;;54.05;30.85;;;;;;;4.98;100.00;101341.22;4992442;28;20058;-72
2021/04/19 00:32:25;;;;;;;56.22;30.67;;;;;;;5.12;100.00;101337.41;4969972;28;20512;-72
2021/04/19 00:34:52;;;;;;;56.17;31.60;;;;;;;5.04;100.00;101341.06;4969395;28;20058;-71
2021/04/19 00:37:19;;;;;;;55.28;31.38;;;;;;;5.14;100.00;101336.47;5004475;28;20054;-72
2021/04/19 00:39:46;;;;;;;55.13;32.25;;;;;;;5.15;100.00;101337.34;4975787;28;20137;-73
2021/04/19 00:42:15;;;;;;;51.10;29.40;;;;;;;5.10;100.00;101340.06;4995750;28;20592;-73
2021/04/19 00:44:44;;;;;;;54.17;30.75;;;;;;;4.99;100.00;101337.69;4953618;28;20070;-72
2021/04/19 00:47:12;;;;;;;61.72;33.17;;;;;;;4.90;100.00;101331.84;4974981;28;20168;-72
2021/04/19 00:49:40;;;;;;;64.38;35.03;;;;;;;4.79;100.00;101334.72;4978360;28;20060;-71
2021/04/19 00:52:07;;;;;;;78.97;38.70;;;;;;;4.77;100.00;101336.50;4979358;28;20066;-73
2021/04/19 00:54:35;;;;;;;64.88;35.47;;;;;;;4.64;100.00;101337.66;4982827;28;20144;-72
2021/04/19 00:57:02;;;;;;;70.53;35.85;;;;;;;4.63;100.00;101346.41;4964066;28;20050;-71
2021/04/19 00:59:29;;;;;;;70.47;36.88;;;;;;;4.47;100.00;101344.16;4979171;28;21542;-73
2021/04/19 01:01:57;;;;;;;67.90;35.60;;;;;;;4.56;100.00;101348.28;4993485;28;20149;-72
2021/04/19 01:04:24;;;;;;;89.25;41.15;;;;;;;4.40;100.00;101342.56;4991338;28;20093;-72
2021/04/19 01:06:51;;;;;;;84.88;37.85;;;;;;;4.48;100.00;101350.22;4990411;28;20054;-70
2021/04/19 01:09:18;;;;;;;215.48;40.45;;;;;;;4.42;100.00;101340.78;4965676;28;20640;-72
2021/04/19 01:11:44;;;;;;;331.30;50.15;;;;;;;4.29;100.00;101339.34;4964911;28;20134;-72
2021/04/19 01:14:12;;;;;;;166.70;44.85;;;;;;;4.32;100.00;101350.56;4967735;28;20146;-73
2021/04/19 01:16:38;;;;;;;126.82;37.25;;;;;;;4.40;100.00;101347.75;4976299;28;20528;-73
2021/04/19 01:19:05;;;;;;;504.52;59.00;;;;;;;4.17;100.00;101345.66;4995101;28;20050;-74
2021/04/19 01:21:32;;;;;;;312.52;50.83;;;;;;;4.12;100.00;101346.66;4985414;28;20133;-73
2021/04/19 01:23:59;;;;;;;210.80;43.03;;;;;;;4.25;100.00;101346.34;4991833;28;20065;-72
2021/04/19 01:26:26;;;;;;;348.02;50.15;;;;;;;4.15;100.00;101351.81;4968946;28;20598;-74
2021/04/19 01:28:53;;;;;;;343.40;56.58;;;;;;;4.13;100.00;101349.22;4996185;28;20070;-73
2021/04/19 01:31:20;;;;;;;192.57;48.17;;;;;;;4.06;100.00;101343.28;5011453;28;20081;-72
2021/04/19 01:33:48;;;;;;;297.17;54.15;;;;;;;4.04;100.00;101349.41;4972667;28;20164;-72
2021/04/19 01:36:15;;;;;;;447.88;65.18;;;;;;;3.94;100.00;101350.47;4982161;28;20065;-72
2021/04/19 01:38:42;;;;;;;122.28;41.30;;;;;;;4.13;100.00;101345.75;4967034;28;20061;-71
2021/04/19 01:41:08;;;;;;;134.20;38.45;;;;;;;4.09;100.00;101350.16;4972093;28;20034;-73
2021/04/19 01:43:35;;;;;;;78.25;37.50;;;;;;;4.09;100.00;101344.09;4974877;28;20054;-72
2021/04/19 01:46:02;;;;;;;274.77;47.10;;;;;;;4.09;100.00;101350.16;4991326;28;20503;-72
2021/04/19 01:48:29;;;;;;;249.38;47.30;;;;;;;4.00;100.00;101351.19;4972891;28;20137;-72
2021/04/19 01:50:56;;;;;;;105.38;36.83;;;;;;;4.13;100.00;101350.97;4951476;28;20197;-72
2021/04/19 01:53:23;;;;;;;63.78;35.28;;;;;;;4.04;100.00;101339.84;5009465;28;20046;-72
2021/04/19 01:55:50;;;;;;;138.88;40.33;;;;;;;3.98;100.00;101355.59;5009965;28;20088;-72
2021/04/19 01:58:19;;;;;;;123.32;40.33;;;;;;;4.03;100.00;101353.75;4968199;28;20079;-72
2021/04/19 02:00:56;;;;;;;134.63;41.20;;;;;;;3.99;100.00;101356.44;4965525;28;20079;-72
2021/04/19 02:03:44;;;;;;;178.20;46.92;;;;;;;3.95;100.00;101350.44;4965043;28;20068;-72
2021/04/19 02:06:28;;;;;;;138.65;37.65;;;;;;;4.03;100.00;101353.75;4971728;28;20112;-72
2021/04/19 02:09:09;;;;;;;75.45;37.50;;;;;;;3.98;100.00;101349.53;4964241;28;20636;-71
2021/04/19 02:12:11;;;;;;;152.77;40.33;;;;;;;3.92;100.00;101350.53;4979674;28;20038;-71
2021/04/19 02:14:44;;;;;;;105.95;36.03;;;;;;;3.86;100.00;101353.22;4988951;28;20062;-72
2021/04/19 02:17:23;;;;;;;107.15;37.70;;;;;;;3.90;100.00;101352.28;4978476;28;20179;-72
2021/04/19 02:20:07;;;;;;;84.75;34.47;;;;;;;4.02;100.00;101354.66;4982328;28;20062;-72
2021/04/19 02:22:58;;;;;;;106.88;35.80;;;;;;;3.98;100.00;101357.34;4968984;28;20101;-72
2021/04/19 02:25:29;;;;;;;113.72;33.55;;;;;;;3.89;100.00;101358.38;4958771;28;20060;-71
2021/04/19 02:28:03;;;;;;;108.57;32.95;;;;;;;4.00;100.00;101352.94;4952196;28;20127;-71
2021/04/19 02:30:33;;;;;;;70.50;33.25;;;;;;;3.96;100.00;101346.09;4985715;28;20130;-71
2021/04/19 02:33:01;;;;;;;101.97;35.25;;;;;;;3.99;100.00;101352.09;4977689;28;20054;-72
2021/04/19 02:35:32;;;;;;;103.07;37.80;;;;;;;3.88;100.00;101350.63;4983810;28;20052;-71
2021/04/19 02:37:59;;;;;;;99.80;36.65;;;;;;;3.96;100.00;101341.75;4989248;28;20070;-71
2021/04/19 02:40:27;;;;;;;81.80;36.60;;;;;;;4.06;100.00;101337.22;4962847;28;20058;-72
2021/04/19 02:42:56;;;;;;;70.80;35.88;;;;;;;4.09;100.00;101341.50;4971157;28;20465;-72
2021/04/19 02:45:24;;;;;;;204.05;44.20;;;;;;;3.92;100.00;101344.47;4963484;28;20154;-72
2021/04/19 02:47:51;;;;;;;218.63;47.78;;;;;;;3.81;100.00;101340.28;4969738;28;20062;-71
2021/04/19 02:50:24;;;;;;;215.30;47.33;;;;;;;3.76;100.00;101349.94;4971511;28;20078;-71
2021/04/19 02:52:51;;;;;;;235.13;49.58;;;;;;;3.81;100.00;101339.44;4975473;28;20045;-70
2021/04/19 02:55:25;;;;;;;202.98;45.78;;;;;;;3.73;100.00;101343.94;4980930;28;20070;-71
2021/04/19 02:57:56;;;;;;;237.38;49.05;;;;;;;3.79;100.00;101341.22;4971257;28;20088;-70
2021/04/19 03:00:29;;;;;;;260.95;49.17;;;;;;;3.80;100.00;101340.34;4952472;28;20066;-72
2021/04/19 03:02:59;;;;;;;133.13;44.17;;;;;;;3.83;100.00;101342.88;4979540;28;20138;-70
2021/04/19 03:05:27;;;;;;;176.75;45.15;;;;;;;3.69;100.00;101344.88;4968724;28;20115;-73
2021/04/19 03:08:00;;;;;;;294.10;50.28;;;;;;;3.64;100.00;101350.16;4970716;28;20057;-72
2021/04/19 03:10:30;;;;;;;144.32;43.60;;;;;;;3.89;100.00;101334.94;4956966;28;20452;-71
2021/04/19 03:12:58;;;;;;;152.00;42.97;;;;;;;3.79;100.00;101334.28;4986208;28;20045;-71
2021/04/19 03:15:32;;;;;;;117.40;41.75;;;;;;;3.95;100.00;101334.81;4962960;28;20046;-72
2021/04/19 03:18:01;;;;;;;96.00;40.90;;;;;;;3.95;100.00;101334.81;4989729;28;20058;-72
2021/04/19 03:20:30;;;;;;;93.93;40.40;;;;;;;3.85;100.00;101333.28;4961477;28;20056;-72
2021/04/19 03:22:57;;;;;;;80.70;40.55;;;;;;;3.79;100.00;101338.63;4982167;28;20169;-72
2021/04/19 03:25:24;;;;;;;70.40;38.15;;;;;;;3.87;100.00;101336.69;4986725;28;20563;-72
2021/04/19 03:27:55;;;;;;;75.32;38.28;;;;;;;3.86;100.00;101342.81;4976635;28;20133;-71
2021/04/19 03:30:22;;;;;;;86.55;36.78;;;;;;;3.77;100.00;101338.63;4950054;28;20137;-73
2021/04/19 03:32:54;;;;;;;72.93;37.15;;;;;;;3.74;100.00;101330.06;4976019;28;20046;-72
2021/04/19 03:35:24;;;;;;;73.05;35.67;;;;;;;3.63;100.00;101334.59;4989657;28;20101;-71
2021/04/19 03:37:51;;;;;;;72.85;37.03;;;;;;;3.60;100.00;101321.63;4974206;28;20077;-72
2021/04/19 03:40:33;;;;;;;83.80;38.50;;;;;;;3.68;100.00;101335.34;4978366;28;20085;-72
2021/04/19 03:43:04;;;;;;;96.72;37.65;;;;;;;3.69;100.00;101337.06;4970024;28;20041;-72
2021/04/19 03:45:35;;;;;;;82.25;36.65;;;;;;;3.64;100.00;101344.97;4991097;28;20064;-71
2021/04/19 03:48:03;;;;;;;91.72;38.58;;;;;;;3.63;100.00;101351.06;4992119;28;20081;-72
2021/04/19 03:50:31;;;;;;;125.80;36.63;;;;;;;3.80;100.00;101350.75;4995015;28;20078;-70
2021/04/19 03:52:59;;;;;;;70.00;33.78;;;;;;;3.80;100.00;101359.41;4985326;28;20321;-70
2021/04/19 03:55:26;;;;;;;88.28;33.60;;;;;;;3.79;100.00;101359.47;4983077;28;20113;-71
2021/04/19 03:57:54;;;;;;;51.63;30.35;;;;;;;3.87;100.00;101349.72;4993804;28;20422;-70
2021/04/19 04:00:22;;;;;;;63.42;35.67;;;;;;;3.87;100.00;101347.13;4989798;28;20132;-72
2021/04/19 04:02:54;;;;;;;63.20;30.98;;;;;;;3.85;100.00;101346.31;4960482;28;20110;-73
2021/04/19 04:05:21;;;;;;;133.93;33.45;;;;;;;3.61;100.00;101350.25;4971692;28;20039;-71
2021/04/19 04:07:50;;;;;;;119.65;31.95;;;;;;;3.67;100.00;101349.28;4990421;28;20050;-72
2021/04/19 04:10:21;;;;;;;142.90;33.58;;;;;;;3.61;100.00;101336.38;4954645;28;20058;-71
2021/04/19 04:12:48;;;;;;;130.73;34.28;;;;;;;3.67;100.00;101339.72;4975890;28;20153;-72
2021/04/19 04:15:17;;;;;;;114.15;35.80;;;;;;;3.60;100.00;101330.28;4969020;28;20062;-71
2021/04/19 04:17:44;;;;;;;191.70;37.40;;;;;;;3.55;100.00;101332.13;4995695;28;20081;-71
2021/04/19 04:20:13;;;;;;;194.65;42.83;;;;;;;3.59;100.00;101339.00;4997062;28;20077;-73
2021/04/19 04:22:40;;;;;;;207.80;41.13;;;;;;;3.67;100.00;101342.31;4982241;28;20046;-71
2021/04/19 04:25:09;;;;;;;101.45;37.38;;;;;;;3.77;100.00;101348.19;4971353;28;20141;-72
2021/04/19 04:27:36;;;;;;;117.30;38.00;;;;;;;3.86;100.00;101355.84;4941422;28;20043;-71
2021/04/19 04:30:03;;;;;;;118.45;37.38;;;;;;;3.95;100.00;101360.84;4969412;28;20073;-73
2021/04/19 04:32:30;;;;;;;61.15;32.95;;;;;;;4.23;100.00;101366.41;4961430;28;20101;-72
2021/04/19 04:34:57;;;;;;;58.30;32.53;;;;;;;4.35;100.00;101364.41;4961712;28;20077;-71
2021/04/19 04:37:24;;;;;;;69.03;31.65;;;;;;;4.18;100.00;101369.97;4996963;28;20089;-70
2021/04/19 04:39:51;;;;;;;54.47;30.95;;;;;;;4.15;100.00;101365.69;4968049;28;20051;-71
2021/04/19 04:42:19;;;;;;;64.80;29.30;;;;;;;4.15;100.00;101357.88;4967918;28;20051;-73
2021/04/19 04:44:50;;;;;;;143.23;33.95;;;;;;;4.18;100.00;101357.78;4971090;28;20149;-71
2021/04/19 04:47:34;;;;;;;74.63;31.38;;;;;;;4.19;100.00;101359.53;4992203;28;20528;-72
2021/04/19 04:50:22;;;;;;;101.68;31.85;;;;;;;4.38;100.00;101351.31;4974060;28;20575;-71
2021/04/19 04:53:24;;;;;;;110.95;32.90;;;;;;;4.39;100.00;101360.84;4988593;28;20054;-72
2021/04/19 04:55:52;;;;;;;91.90;31.30;;;;;;;4.30;100.00;101362.75;4962894;28;20128;-72
2021/04/19 04:58:19;;;;;;;53.60;29.13;;;;;;;4.33;100.00;101354.03;4967919;28;20493;-72
2021/04/19 05:00:46;;;;;;;49.10;29.15;;;;;;;4.55;100.00;101355.25;4975555;28;20115;-71
2021/04/19 05:03:14;;;;;;;52.17;28.50;;;;;;;4.40;100.00;101350.38;5001716;28;20084;-72
2021/04/19 05:05:44;;;;;;;51.75;29.67;;;;;;;4.41;100.00;101351.22;4973810;28;20109;-73
2021/04/19 05:08:12;;;;;;;54.60;30.60;;;;;;;4.36;100.00;101351.31;4978724;28;20089;-71
2021/04/19 05:10:39;;;;;;;48.25;30.27;;;;;;;4.46;100.00;101352.00;4992407;28;20074;-72
2021/04/19 05:13:13;;;;;;;48.00;30.20;;;;;;;4.56;100.00;101346.53;4975437;28;20110;-72
2021/04/19 05:15:45;;;;;;;49.85;30.58;;;;;;;4.54;100.00;101347.47;4999943;28;20062;-72
2021/04/19 05:18:13;;;;;;;53.92;31.58;;;;;;;4.50;100.00;101338.88;4987042;28;20110;-71
2021/04/19 05:20:41;;;;;;;52.13;31.55;;;;;;;4.55;100.00;101343.97;4958157;28;20079;-72
2021/04/19 05:23:09;;;;;;;50.03;30.80;;;;;;;4.57;100.00;101353.47;4974383;28;20353;-72
2021/04/19 05:25:36;;;;;;;57.90;33.15;;;;;;;4.59;100.00;101358.63;4967378;28;20068;-72
2021/04/19 05:28:03;;;;;;;53.35;32.08;;;;;;;4.67;100.00;101359.31;4954588;28;20082;-72
2021/04/19 05:30:31;;;;;;;54.85;30.98;;;;;;;4.83;100.00;101357.25;4978221;28;20642;-71
2021/04/19 05:32:58;;;;;;;40.53;28.45;;;;;;;4.94;100.00;101350.00;4969362;28;20586;-72
2021/04/19 05:35:29;;;;;;;43.05;30.27;;;;;;;4.97;100.00;101351.69;4970497;28;20408;-71
2021/04/19 05:37:56;;;;;;;45.95;31.35;;;;;;;4.95;100.00;101350.84;4957126;28;20157;-72
2021/04/19 05:40:26;;;;;;;46.38;31.05;;;;;;;4.95;100.00;101353.47;4988546;28;20437;-73
2021/04/19 05:42:54;;;;;;;47.58;30.08;;;;;;;5.03;100.00;101357.59;4970356;28;20038;-72
2021/04/19 05:45:21;;;;;;;48.50;30.67;;;;;;;4.98;100.00;101364.69;4992190;28;20114;-71
2021/04/19 05:47:52;;;;;;;40.47;27.50;;;;;;;4.99;100.00;101358.56;4996593;28;20050;-72
2021/04/19 05:50:22;;;;;;;46.95;29.38;;;;;;;4.95;100.00;101367.38;4985482;28;20058;-72
2021/04/19 05:52:52;;;;;;;38.88;28.02;;;;;;;5.01;100.00;101364.63;4980159;28;20073;-71
2021/04/19 05:55:22;;;;;;;49.55;30.55;;;;;;;4.95;100.00;101367.38;4983101;28;20066;-70
2021/04/19 05:58:03;;;;;;;52.65;32.55;;;;;;;4.99;100.00;101368.16;4966075;28;20060;-71
2021/04/19 06:00:36;;;;;;;53.35;31.80;;;;;;;4.97;100.00;101362.97;4961572;28;20058;-71
2021/04/19 06:03:26;;;;;;;47.53;32.30;;;;;;;5.02;100.00;101355.91;4971094;28;20050;-71
2021/04/19 06:06:15;;;;;;;50.90;32.20;;;;;;;5.30;100.00;101356.06;4971259;28;20065;-70
2021/04/19 06:08:50;;;;;;;53.75;31.45;;;;;;;5.54;100.00;101351.13;4969519;28;20058;-70
2021/04/19 06:11:46;;;;;;;52.95;32.45;;;;;;;5.55;100.00;101353.69;4973408;28;20057;-70
2021/04/19 06:14:15;;;;;;;49.50;31.50;;;;;;;5.43;100.00;101354.00;4951330;28;20047;-73
2021/04/19 06:16:42;;;;;;;45.58;30.77;;;;;;;5.59;100.00;101357.94;4981068;28;20066;-71
2021/04/19 06:19:12;;;;;;;47.22;29.25;;;;;;;5.49;100.00;101363.41;4950812;28;20157;-70
2021/04/19 06:21:39;;;;;;;48.95;31.73;;;;;;;5.67;100.00;101362.09;4968495;28;20058;-70
2021/04/19 06:24:06;;;;;;;47.97;30.27;;;;;;;5.73;100.00;101368.00;4967159;28;20133;-67
2021/04/19 06:26:34;;;;;;;46.53;30.15;;;;;;;5.77;100.00;101364.41;4989329;28;20058;-71
2021/04/19 06:29:02;;;;;;;46.38;29.42;;;;;;;5.97;100.00;101369.13;4971784;28;20065;-73
2021/04/19 06:31:31;;;;;;;46.88;28.25;;;;;;;6.10;100.00;101361.78;4990949;28;20057;-74
2021/04/19 06:34:08;;;;;;;42.20;29.48;;;;;;;6.39;100.00;101370.53;4999158;28;20065;-73
2021/04/19 06:36:37;;;;;;;44.95;26.67;;;;;;;6.51;100.00;101375.41;4982589;28;20161;-72
2021/04/19 06:39:05;;;;;;;37.92;26.92;;;;;;;6.67;100.00;101368.81;4991039;28;20113;-72
2021/04/19 06:41:32;;;;;;;38.40;25.80;;;;;;;6.67;100.00;101360.13;4995142;28;20068;-69
2021/04/19 06:44:00;;;;;;;35.88;24.48;;;;;;;6.72;100.00;101371.28;4988876;28;20145;-72
2021/04/19 06:46:30;;;;;;;44.38;25.65;;;;;;;6.44;100.00;101361.69;4981967;28;20742;-70
2021/04/19 06:48:57;;;;;;;31.92;22.80;;;;;;;6.88;100.00;101350.72;4977244;28;20193;-71
2021/04/19 06:51:25;;;;;;;36.28;24.27;;;;;;;7.32;100.00;101350.13;5000098;28;20046;-73
2021/04/19 06:53:53;;;;;;;30.92;21.80;;;;;;;7.58;100.00;101346.59;4979608;28;20058;-73
2021/04/19 06:56:23;;;;;;;31.80;22.33;;;;;;;7.38;100.00;101363.91;4983500;28;20133;-72
2021/04/19 06:58:52;;;;;;;27.73;20.67;;;;;;;7.31;100.00;101360.66;4986059;28;20070;-75
2021/04/19 07:01:20;;;;;;;29.23;21.73;;;;;;;7.46;100.00;101365.34;5011796;28;20128;-71
2021/04/19 07:03:48;;;;;;;28.40;21.73;;;;;;;7.13;100.00;101354.25;4981128;28;20046;-71
2021/04/19 07:06:16;;;;;;;35.50;23.10;;;;;;;6.91;100.00;101361.94;5001918;28;20057;-70
2021/04/19 07:08:49;;;;;;;32.33;22.63;;;;;;;6.89;100.00;101374.25;4970692;28;20054;-72
2021/04/19 07:11:20;;;;;;;28.67;20.05;;;;;;;7.23;100.00;101363.53;4983886;28;20069;-73
2021/04/19 07:13:47;;;;;;;30.35;23.52;;;;;;;7.00;100.00;101361.66;4974912;28;20042;-71
2021/04/19 07:16:14;;;;;;;31.15;22.38;;;;;;;7.19;100.00;101367.13;4979192;28;20081;-72
2021/04/19 07:18:41;;;;;;;41.55;24.25;;;;;;;7.14;100.00;101355.13;4975850;28;20415;-72
2021/04/19 07:21:10;;;;;;;35.50;25.13;;;;;;;7.23;100.00;101353.03;4971478;28;20042;-71
2021/04/19 07:23:39;;;;;;;33.78;23.98;;;;;;;7.46;100.00;101338.31;4974941;28;20616;-72
2021/04/19 07:26:06;;;;;;;39.03;25.50;;;;;;;7.96;100.00;101323.41;4998326;28;20564;-70
2021/04/19 07:28:37;;;;;;;34.05;25.20;;;;;;;8.33;99.79;101317.63;4974037;28;20061;-71
2021/04/19 07:31:06;;;;;;;33.22;22.70;;;;;;;8.90;97.07;101328.53;4990402;28;20047;-72
2021/04/19 07:33:35;;;;;;;31.23;24.02;;;;;;;9.13;93.15;101325.81;4964173;28;20439;-71
2021/04/19 07:36:24;;;;;;;30.55;22.77;;;;;;;10.21;88.25;101337.72;4992677;28;20046;-71
2021/04/19 07:38:52;;;;;;;28.65;19.58;;;;;;;10.43;87.44;101345.53;4984300;28;20568;-72
2021/04/19 07:41:19;;;;;;;26.38;18.52;;;;;;;10.99;82.31;101334.06;4988242;28;21186;-72
2021/04/19 07:43:47;;;;;;;23.48;16.98;;;;;;;10.53;83.77;101346.78;4950135;28;20497;-71
2021/04/19 07:46:18;;;;;;;19.83;16.60;;;;;;;10.43;83.72;101342.03;4993908;28;20042;-70
2021/04/19 07:48:48;;;;;;;23.92;18.70;;;;;;;10.33;84.38;101347.75;4994762;28;20062;-71
2021/04/19 07:51:30;;;;;;;21.60;17.50;;;;;;;9.65;87.81;101349.03;4986698;28;20110;-71
2021/04/19 07:54:19;;;;;;;25.27;19.23;;;;;;;9.53;89.44;101357.44;4985528;28;20030;-72
2021/04/19 07:57:08;;;;;;;24.58;19.42;;;;;;;9.49;89.11;101363.75;4984481;28;20050;-70
2021/04/19 07:59:37;;;;;;;24.27;20.33;;;;;;;8.60;93.94;101369.97;4971988;28;20628;-74
2021/04/19 08:02:12;;;;;;;26.42;20.95;;;;;;;8.73;94.48;101376.47;4956727;28;20073;-72
2021/04/19 08:04:50;;;;;;;27.50;21.40;;;;;;;9.29;91.88;101375.09;4990459;28;20104;-72
2021/04/19 08:07:24;;;;;;;29.48;22.80;;;;;;;9.64;90.09;101365.72;4954584;28;20053;-70
2021/04/19 08:10:06;;;;;;;28.98;23.65;;;;;;;9.73;90.45;101360.06;4971292;28;20058;-71
2021/04/19 08:12:41;;;;;;;31.98;25.50;;;;;;;9.74;89.43;101363.56;4973948;28;20125;-71
2021/04/19 08:15:10;;;;;;;31.73;25.17;;;;;;;9.84;90.53;101363.06;4981442;28;20062;-73
2021/04/19 08:17:37;;;;;;;29.55;25.45;;;;;;;10.10;89.70;101358.44;4958360;28;20101;-71
2021/04/19 08:20:21;;;;;;;33.55;25.30;;;;;;;10.11;88.82;101357.50;4979393;28;20058;-72
2021/04/19 08:22:48;;;;;;;33.03;27.92;;;;;;;10.11;90.57;101357.50;4972476;28;21335;-71
2021/04/19 08:25:22;;;;;;;36.22;29.50;;;;;;;9.48;92.48;101357.63;4989930;28;20050;-71
2021/04/19 08:28:04;;;;;;;33.10;27.40;;;;;;;9.46;93.36;101348.97;5008137;28;20108;-71
2021/04/19 08:30:32;;;;;;;33.03;29.30;;;;;;;9.50;93.18;101337.41;4989225;28;20124;-71
2021/04/19 08:32:59;;;;;;;34.88;27.35;;;;;;;10.54;89.83;101340.63;4977714;28;20046;-72
2021/04/19 08:35:27;;;;;;;32.25;27.73;;;;;;;11.29;84.07;101329.03;4990098;28;20058;-72
2021/04/19 08:37:56;;;;;;;33.28;25.70;;;;;;;12.80;77.94;101319.19;4971776;28;20577;-73
2021/04/19 08:40:25;;;;;;;33.42;25.45;;;;;;;12.70;77.12;101313.59;4972525;28;20042;-71
2021/04/19 08:42:54;;;;;;;33.10;25.30;;;;;;;13.90;72.74;101310.84;4993422;28;20050;-73
2021/04/19 08:45:21;;;;;;;25.88;22.25;;;;;;;14.30;69.42;101312.81;4958388;28;20046;-71
2021/04/19 08:47:48;;;;;;;26.90;23.35;;;;;;;14.07;69.90;101304.50;4965091;28;20066;-71
2021/04/19 08:50:21;;;;;;;28.25;24.42;;;;;;;14.29;69.48;101300.50;4974085;28;20154;-72
2021/04/19 08:52:48;;;;;;;27.20;22.98;;;;;;;14.32;68.49;101303.81;4997569;28;20051;-71
2021/04/19 08:55:14;;;;;;;29.70;23.83;;;;;;;12.76;74.65;101299.16;4988612;28;20078;-72
2021/04/19 08:57:43;;;;;;;30.88;24.42;;;;;;;11.85;79.56;101293.63;4971910;28;20589;-71
2021/04/19 09:00:11;;;;;;;28.75;25.63;;;;;;;12.01;78.63;101290.13;4989337;28;20398;-71
2021/04/19 09:02:38;;;;;;;30.67;23.77;;;;;;;12.26;77.41;101295.78;4971588;28;20047;-71
2021/04/19 09:05:10;;;;;;;30.50;24.60;;;;;;;12.21;78.02;101291.72;4978724;28;20088;-71
2021/04/19 09:07:46;;;;;;;32.13;25.40;;;;;;;11.86;79.13;101282.13;5001225;28;20070;-72
2021/04/19 09:10:16;;;;;;;30.45;25.58;;;;;;;12.01;79.88;101285.72;4976253;28;21011;-71
2021/04/19 09:12:45;;;;;;;30.25;26.98;;;;;;;12.10;79.08;101282.56;4995140;28;20100;-71
2021/04/19 09:15:29;;;;;;;33.65;25.90;;;;;;;11.52;80.67;101288.28;4966331;28;20052;-71
2021/04/19 09:18:08;;;;;;;31.77;26.75;;;;;;;11.12;83.40;101285.09;4987674;28;20535;-71
2021/04/19 09:20:47;;;;;;;30.67;26.20;;;;;;;11.40;83.07;101281.03;4966199;28;20072;-71
2021/04/19 09:23:23;;;;;;;28.55;24.38;;;;;;;11.54;81.40;101290.88;4986503;28;20436;-72
2021/04/19 09:25:50;;;;;;;29.00;24.20;;;;;;;10.94;84.27;101279.88;4971489;28;20050;-71
2021/04/19 09:28:49;;;;;;;32.38;24.05;;;;;;;11.30;83.30;101279.78;4991190;28;20051;-71
2021/04/19 09:31:16;;;;;;;27.60;22.35;;;;;;;11.12;84.24;101278.94;4960307;28;20050;-72
2021/04/19 09:33:46;;;;;;;24.30;20.65;;;;;;;11.02;84.45;101275.94;4978402;28;20077;-73
2021/04/19 09:36:14;;;;;;;28.15;20.10;;;;;;;11.10;84.41;101271.13;4998053;28;20074;-73
2021/04/19 09:38:48;;;;;;;23.92;19.80;;;;;;;11.63;82.66;101275.41;4968859;28;20054;-70
2021/04/19 09:41:18;;;;;;;22.83;19.10;;;;;;;11.56;83.57;101270.53;4952592;28;20070;-71
2021/04/19 09:43:58;;;;;;;23.30;18.20;;;;;;;11.95;81.38;101272.88;4969502;28;20110;-71
2021/04/19 09:46:28;;;;;;;22.40;18.42;;;;;;;11.18;84.61;101268.13;4972379;28;20133;-71
2021/04/19 09:49:02;;;;;;;24.08;17.77;;;;;;;11.34;84.53;101271.66;4989544;28;20752;-71
2021/04/19 09:51:33;;;;;;;30.98;19.98;;;;;;;11.98;82.90;101271.81;4956906;28;20457;-71
2021/04/19 09:54:08;;;;;;;25.92;17.70;;;;;;;12.54;80.25;101267.84;4961434;28;20611;-72
2021/04/19 09:56:45;;;;;;;31.08;21.38;;;;;;;12.67;78.87;101272.34;4983707;28;20135;-71
2021/04/19 09:59:19;;;;;;;32.20;19.13;;;;;;;12.91;77.15;101264.78;4983507;28;20050;-71
2021/04/19 10:01:50;;;;;;;20.30;16.70;;;;;;;13.19;76.07;101271.06;4959399;28;20085;-70
2021/04/19 10:04:18;;;;;;;22.25;16.25;;;;;;;13.04;76.86;101269.34;4966799;28;20104;-70
2021/04/19 10:06:50;;;;;;;21.30;17.98;;;;;;;13.38;76.04;101276.16;4972579;28;20114;-70
2021/04/19 10:09:25;;;;;;;20.85;17.30;;;;;;;13.50;75.03;101270.09;4969382;28;20137;-70
2021/04/19 10:11:58;;;;;;;22.00;16.42;;;;;;;13.47;74.76;101272.97;4966446;28;20461;-69
2021/04/19 10:14:26;;;;;;;23.15;18.13;;;;;;;13.60;74.76;101262.47;4993396;28;20049;-70
2021/04/19 10:16:53;;;;;;;26.67;16.55;;;;;;;14.05;73.23;101266.72;4994422;28;20077;-69
2021/04/19 10:19:28;;;;;;;20.67;15.77;;;;;;;14.36;71.39;101257.66;4969694;28;20052;-70
2021/04/19 10:22:06;;;;;;;21.23;17.25;;;;;;;14.67;70.07;101259.16;4975204;28;20061;-71
2021/04/19 10:24:34;;;;;;;21.05;16.33;;;;;;;14.01;72.75;101264.34;4958532;28;20122;-70
2021/04/19 10:27:03;;;;;;;23.08;17.70;;;;;;;14.11;73.12;101254.88;4979770;28;20054;-71
2021/04/19 10:29:30;;;;;;;23.00;18.58;;;;;;;14.01;72.57;101251.97;4982363;28;20046;-71
2021/04/19 10:31:59;;;;;;;25.67;17.50;;;;;;;14.12;73.05;101254.75;4992097;28;20082;-71
2021/04/19 10:34:32;;;;;;;20.77;17.23;;;;;;;14.14;72.37;101259.97;4997968;28;20118;-70
2021/04/19 10:37:03;;;;;;;22.38;18.05;;;;;;;14.52;70.90;101243.44;5008322;28;20058;-70
2021/04/19 10:39:35;;;;;;;20.95;15.38;;;;;;;14.73;68.88;101241.19;4980634;28;20549;-72
2021/04/19 10:42:07;;;;;;;21.73;15.48;;;;;;;14.40;70.21;101250.34;5001133;28;20062;-70
2021/04/19 10:44:43;;;;;;;17.85;14.73;;;;;;;14.50;68.34;101245.31;4973498;28;20042;-71
2021/04/19 10:47:28;;;;;;;25.05;15.93;;;;;;;14.51;69.23;101247.88;4984192;28;20137;-71
2021/04/19 10:49:55;;;;;;;25.90;17.23;;;;;;;15.19;67.54;101245.06;4987984;28;20054;-70
2021/04/19 10:52:22;;;;;;;25.48;18.48;;;;;;;15.44;66.43;101252.19;4954873;28;20053;-71
2021/04/19 10:54:49;;;;;;;23.83;16.58;;;;;;;16.16;64.65;101239.13;4987531;28;20513;-70
2021/04/19 10:57:27;;;;;;;24.05;19.10;;;;;;;16.63;63.03;101244.59;4967841;28;20093;-73
2021/04/19 10:59:55;;;;;;;22.42;18.30;;;;;;;17.01;61.89;101246.19;4976402;28;20089;-71
2021/04/19 11:02:23;;;;;;;29.92;19.52;;;;;;;16.43;63.30;101238.06;4951486;28;20136;-71
2021/04/19 11:04:51;;;;;;;26.90;20.40;;;;;;;16.77;62.90;101239.09;4966968;28;20047;-71
2021/04/19 11:07:22;;;;;;;21.58;18.85;;;;;;;16.56;63.44;101238.84;4951203;28;20146;-71
2021/04/19 11:10:09;;;;;;;28.13;19.35;;;;;;;16.77;63.00;101232.94;4983540;28;20093;-71
2021/04/19 11:12:36;;;;;;;29.05;20.60;;;;;;;16.58;63.21;101239.59;4962803;28;20097;-69
2021/04/19 11:15:10;;;;;;;28.45;20.00;;;;;;;16.40;63.80;101231.19;4966948;28;20168;-70
2021/04/19 11:17:37;;;;;;;28.38;21.00;;;;;;;16.09;64.87;101232.56;4986925;28;20050;-70
2021/04/19 11:20:31;;;;;;;29.13;20.30;;;;;;;15.41;66.94;101223.22;4967765;28;20068;-69
2021/04/19 11:22:59;;;;;;;30.20;21.02;;;;;;;15.63;67.03;101225.22;4981005;28;20768;-70